Time;durP1;ratioP1;P1;durP2;ratioP2;P2;SDS_P1;SDS_P2;PMS_P1;PMS_P2;Temp;Humidity;BMP_temperature;BMP_pressure;BME280_temperature;BME280_humidity;BME280_pressure;Samples;Min_cycle;Max_cycle;Signal;HPM_P1;HPM_P2
2023/10/18 00:00:36;;;;;;;;;;;;;;;10.85;52.09;100166.28;6142143;23;6820;-70
2023/10/18 00:03:02;;;;;;;;;;;;;;;10.83;51.86;100163.66;6141108;23;6763;-71
2023/10/18 00:05:29;;;;;;;;;;;;;;;10.82;51.96;100159.34;6143654;23;6758;-71
2023/10/18 00:07:59;;;;;;;;;;;;;;;10.80;52.07;100160.06;6142738;23;6913;-71
2023/10/18 00:10:27;;;;;;;;;;;;;;;10.78;52.12;100160.03;6120243;23;6858;-70
2023/10/18 00:12:55;;;;;;;;;;;;;;;10.78;51.93;100152.34;6143112;23;6826;-71
2023/10/18 00:15:21;;;;;;;;;;;;;;;10.78;52.11;100152.34;6120061;23;6986;-71
2023/10/18 00:17:46;;;;;;;;;;;;;;;10.80;52.43;100149.81;6119480;23;6926;-71
2023/10/18 00:20:25;;;;;;;;;;;;;;;10.81;52.19;100156.69;6144049;23;7074;-72
2023/10/18 00:22:51;;;;;;;;;;;;;;;10.80;52.01;100157.50;6118037;23;7247;-70
2023/10/18 00:25:20;;;;;;;;;;;;;;;10.82;52.17;100146.53;6117748;23;7044;-72
2023/10/18 00:27:45;;;;;;;;;;;;;;;10.84;52.21;100154.28;6118034;23;6875;-70
2023/10/18 00:30:12;;;;;;;;;;;;;;;10.87;51.96;100146.72;6117514;23;6949;-72
2023/10/18 00:32:39;;;;;;;;;;;;;;;10.91;52.24;100138.38;6119362;23;6855;-71
2023/10/18 00:35:21;;;;;;;;;;;;;;;10.95;52.07;100142.78;6142034;23;6942;-71
2023/10/18 00:37:54;;;;;;;;;;;;;;;10.97;51.77;100141.16;6119129;23;6783;-71
2023/10/18 00:43:27;;;;;;;;;;;;;;;11.01;51.91;100133.59;6149144;23;6830;-71
2023/10/18 00:45:55;;;;;;;;;;;;;;;11.00;51.86;100135.28;6119006;23;7148;-70
2023/10/18 00:48:24;;;;;;;;;;;;;;;11.03;51.67;100139.69;6140598;23;6976;-72
2023/10/18 00:50:52;;;;;;;;;;;;;;;11.02;51.67;100127.69;6118014;23;6779;-72
2023/10/18 00:53:23;;;;;;;;;;;;;;;11.02;51.57;100128.53;6119117;23;6975;-71
2023/10/18 00:55:59;;;;;;;;;;;;;;;11.02;51.73;100122.56;6140938;23;7068;-70
2023/10/18 00:58:29;;;;;;;;;;;;;;;11.00;51.51;100114.78;6118653;23;6794;-71
2023/10/18 01:00:58;;;;;;;;;;;;;;;10.97;51.41;100110.41;6116471;23;6979;-71
2023/10/18 01:03:35;;;;;;;;;;;;;;;10.96;51.55;100110.31;6138907;23;7048;-72
2023/10/18 01:06:17;;;;;;;;;;;;;;;10.94;51.60;100110.28;6117551;23;6942;-71
2023/10/18 01:08:47;;;;;;;;;;;;;;;10.91;51.82;100101.56;6140109;23;6775;-72
2023/10/18 01:11:14;;;;;;;;;;;;;;;10.90;51.84;100097.25;6141548;23;6835;-71
2023/10/18 01:13:42;;;;;;;;;;;;;;;10.89;51.72;100096.38;6141961;23;6977;-71
2023/10/18 01:16:14;;;;;;;;;;;;;;;10.88;51.70;100078.38;6117240;23;6827;-71
2023/10/18 01:18:44;;;;;;;;;;;;;;;10.87;51.82;100080.06;6118307;23;6905;-70
2023/10/18 01:21:22;;;;;;;;;;;;;;;10.88;51.56;100075.81;6117426;23;6843;-71
2023/10/18 01:23:54;;;;;;;;;;;;;;;10.87;52.08;100074.06;6141009;23;6997;-70
2023/10/18 01:26:25;;;;;;;;;;;;;;;10.86;52.21;100075.75;6141557;23;6779;-70
2023/10/18 01:28:53;;;;;;;;;;;;;;;10.84;51.91;100067.97;6141994;23;6922;-72
2023/10/18 01:31:20;;;;;;;;;;;;;;;10.84;52.11;100074.81;6117011;23;6951;-71
2023/10/18 01:33:47;;;;;;;;;;;;;;;10.83;52.23;100070.50;6141153;23;7097;-70
2023/10/18 01:36:15;;;;;;;;;;;;;;;10.83;51.93;100060.25;6118589;23;6786;-70
2023/10/18 01:38:44;;;;;;;;;;;;;;;10.82;52.40;100061.06;6117590;23;7085;-70
2023/10/18 01:41:16;;;;;;;;;;;;;;;10.83;52.13;100060.25;6141167;23;6767;-71
2023/10/18 01:43:43;;;;;;;;;;;;;;;10.81;52.22;100052.47;6118960;23;6771;-72
2023/10/18 01:46:13;;;;;;;;;;;;;;;10.81;52.43;100046.47;6138529;23;6787;-71
2023/10/18 01:48:39;;;;;;;;;;;;;;;10.81;52.30;100049.91;6141552;23;6775;-71
2023/10/18 01:51:06;;;;;;;;;;;;;;;10.82;51.99;100043.13;6141561;23;6778;-70
2023/10/18 01:53:32;;;;;;;;;;;;;;;10.81;52.31;100046.47;6142309;23;6958;-71
2023/10/18 01:56:01;;;;;;;;;;;;;;;10.82;51.99;100043.13;6140367;23;6775;-71
2023/10/18 01:58:28;;;;;;;;;;;;;;;10.80;51.97;100029.34;6119650;23;6775;-71
2023/10/18 02:00:56;;;;;;;;;;;;;;;10.79;51.99;100028.47;6116074;23;6942;-70
2023/10/18 02:03:23;;;;;;;;;;;;;;;10.77;52.08;100024.97;6091271;23;6970;-72
2023/10/18 02:05:49;;;;;;;;;;;;;;;10.77;52.12;100027.53;6136182;23;6921;-71
2023/10/18 02:08:18;;;;;;;;;;;;;;;10.76;52.56;100018.06;6116485;23;6914;-70
2023/10/18 02:10:45;;;;;;;;;;;;;;;10.77;52.57;100016.41;6113264;23;6964;-71
2023/10/18 02:13:15;;;;;;;;;;;;;;;10.76;52.54;100018.06;6117495;23;7246;-71
2023/10/18 02:15:41;;;;;;;;;;;;;;;10.77;52.37;100011.28;6114698;23;6961;-72
2023/10/18 02:18:08;;;;;;;;;;;;;;;10.77;52.57;100009.59;6113058;23;6971;-72
2023/10/18 02:20:42;;;;;;;;;;;;;;;10.77;52.20;100012.16;6115767;23;7049;-70
2023/10/18 02:23:13;;;;;;;;;;;;;;;10.77;51.96;100013.84;6086540;23;7030;-71
2023/10/18 02:28:09;;;;;;;;;;;;;;;10.76;52.22;100014.66;6088200;23;6869;-70
2023/10/18 02:30:38;;;;;;;;;;;;;;;10.75;52.15;100007.78;6063394;23;6783;-71
2023/10/18 02:33:06;;;;;;;;;;;;;;;10.76;52.22;100019.78;6109461;23;6847;-70
2023/10/18 02:35:33;;;;;;;;;;;;;;;10.75;52.13;100006.06;6111052;23;6969;-71
2023/10/18 02:38:08;;;;;;;;;;;;;;;10.76;52.38;100006.97;6088376;23;6982;-71
2023/10/18 02:40:38;;;;;;;;;;;;;;;10.75;52.15;100003.50;6109462;23;6867;-70
2023/10/18 02:43:10;;;;;;;;;;;;;;;10.76;52.47;100001.84;6108319;23;6959;-71
2023/10/18 02:45:39;;;;;;;;;;;;;;;10.75;52.30;99994.97;6111865;23;6845;-70
2023/10/18 02:48:08;;;;;;;;;;;;;;;10.74;52.01;99988.94;6085125;23;6848;-73
2023/10/18 02:50:34;;;;;;;;;;;;;;;10.73;52.48;99988.91;6084116;23;7213;-73
2023/10/18 02:53:00;;;;;;;;;;;;;;;10.72;51.95;99989.69;6112413;23;6759;-70
2023/10/18 02:55:27;;;;;;;;;;;;;;;10.72;52.30;99979.44;6087566;23;7088;-71
2023/10/18 02:57:53;;;;;;;;;;;;;;;10.70;52.64;99970.00;6087012;23;7040;-73
2023/10/18 03:00:20;;;;;;;;;;;;;;;10.72;52.42;99974.31;6084562;23;8897;-70
2023/10/18 03:02:45;;;;;;;;;;;;;;;10.70;52.26;99976.84;6110314;23;6779;-70
2023/10/18 03:05:11;;;;;;;;;;;;;;;10.70;52.21;99970.00;6107180;23;6966;-72
2023/10/18 03:07:37;;;;;;;;;;;;;;;10.68;52.71;99969.06;6083242;23;7205;-71
2023/10/18 03:10:18;;;;;;;;;;;;;;;10.67;52.61;99966.44;6109156;23;6771;-71
2023/10/18 03:12:44;;;;;;;;;;;;;;;10.64;52.47;99968.88;6110106;23;7729;-71
2023/10/18 03:15:17;;;;;;;;;;;;;;;10.62;52.31;99970.50;6108156;23;6759;-72
2023/10/18 03:17:43;;;;;;;;;;;;;;;10.60;52.12;99964.47;6106113;23;7179;-70
2023/10/18 03:20:20;;;;;;;;;;;;;;;10.57;52.55;99960.06;6111145;23;6783;-70
2023/10/18 03:22:48;;;;;;;;;;;;;;;10.55;52.43;99956.59;6135582;23;6999;-71
2023/10/18 03:25:16;;;;;;;;;;;;;;;10.55;52.39;99951.47;6116307;23;7843;-71
2023/10/18 03:27:50;;;;;;;;;;;;;;;10.54;52.69;99944.59;6116879;23;6859;-71
2023/10/18 03:30:19;;;;;;;;;;;;;;;10.53;52.96;99938.56;6116113;23;7028;-71
2023/10/18 03:32:49;;;;;;;;;;;;;;;10.54;52.88;99936.91;6090416;23;7220;-71
2023/10/18 03:35:21;;;;;;;;;;;;;;;10.53;52.67;99928.31;6112469;23;7288;-71
2023/10/18 03:37:48;;;;;;;;;;;;;;;10.55;52.87;99925.84;6114851;23;6782;-72
2023/10/18 03:40:21;;;;;;;;;;;;;;;10.57;52.74;99924.19;6112403;23;6888;-72
2023/10/18 03:42:46;;;;;;;;;;;;;;;10.55;52.77;99920.72;6086796;23;7092;-72
2023/10/18 03:45:20;;;;;;;;;;;;;;;10.58;52.81;99920.81;6059269;23;7032;-74
2023/10/18 03:47:57;;;;;;;;;;;;;;;10.59;52.46;99916.59;6065778;23;6783;-72
2023/10/18 03:50:40;;;;;;;;;;;;;;;10.59;52.79;99906.34;6088471;23;6783;-74
2023/10/18 03:53:08;;;;;;;;;;;;;;;10.58;52.63;99910.56;6066009;23;6963;-73
2023/10/18 03:55:39;;;;;;;;;;;;;;;10.59;52.64;99907.19;6063387;23;6782;-72
2023/10/18 03:58:05;;;;;;;;;;;;;;;10.58;52.49;99904.59;6063723;23;7132;-74
2023/10/18 04:00:37;;;;;;;;;;;;;;;10.59;53.44;99909.75;6040780;23;6955;-70
2023/10/18 04:03:15;;;;;;;;;;;;;;;10.59;52.49;99901.22;6115993;23;7306;-71
2023/10/18 04:08:08;;;;;;;;;;;;;;;10.60;52.67;99893.56;6121877;23;6762;-71
2023/10/18 04:10:36;;;;;;;;;;;;;;;10.63;52.83;99877.44;6119078;23;6855;-71
2023/10/18 04:13:05;;;;;;;;;;;;;;;10.63;53.06;99877.44;6115169;23;6960;-72
2023/10/18 04:15:37;;;;;;;;;;;;;;;10.66;53.20;99878.44;6118408;23;6771;-71
2023/10/18 04:20:37;;;;;;;;;;;;;;;10.66;52.98;99873.31;6128232;23;6763;-71
2023/10/18 04:23:20;;;;;;;;;;;;;;;10.65;52.79;99869.00;6119076;23;6767;-71
2023/10/18 04:26:01;;;;;;;;;;;;;;;10.64;52.43;99862.13;6098775;23;8103;-71
2023/10/18 04:28:38;;;;;;;;;;;;;;;10.65;52.69;99865.56;6118455;23;7233;-71
2023/10/18 04:31:11;;;;;;;;;;;;;;;10.63;52.77;99865.50;6094061;23;6970;-71
2023/10/18 04:33:43;;;;;;;;;;;;;;;10.63;52.87;99862.06;6119830;23;6947;-71
2023/10/18 04:36:14;;;;;;;;;;;;;;;10.62;52.82;99868.91;6096102;23;6960;-70
2023/10/18 04:38:46;;;;;;;;;;;;;;;10.63;52.79;99867.19;6117486;23;6888;-73
2023/10/18 04:43:45;;;;;;;;;;;;;;;10.59;52.26;99853.38;6140836;23;6820;-71
2023/10/18 04:51:33;;;;;;;;;;;;;;;10.56;52.68;99838.75;6128821;23;6827;-71
2023/10/18 04:54:08;;;;;;;;;;;;;;;10.53;53.20;99835.22;6094832;23;8420;-71
2023/10/18 04:56:37;;;;;;;;;;;;;;;10.53;52.72;99837.78;6094342;23;7030;-73
2023/10/18 04:59:11;;;;;;;;;;;;;;;10.52;52.72;99834.34;6118867;23;6774;-71
2023/10/18 05:04:24;;;;;;;;;;;;;;;10.50;52.89;99833.41;6129358;23;6842;-70
2023/10/18 05:06:55;;;;;;;;;;;;;;;10.48;52.92;99824.78;6118631;23;6779;-71
2023/10/18 05:10:07;;;;;;;;;;;;;;;10.46;53.36;99825.53;6126237;23;6913;-72
2023/10/18 05:17:32;;;;;;;;;;;;;;;10.42;52.85;99820.28;6155558;23;6803;-72
2023/10/18 05:20:17;;;;;;;;;;;;;;;10.41;52.98;99815.06;6148944;23;6778;-72
2023/10/18 05:22:44;;;;;;;;;;;;;;;10.41;53.30;99815.06;6102184;23;7130;-73
2023/10/18 05:28:00;;;;;;;;;;;;;;;10.36;53.38;99808.88;6134726;23;6767;-71
2023/10/18 05:44:00;;;;;;;;;;;;;;;10.38;53.48;99802.13;6126776;23;6779;-76
2023/10/18 05:46:27;;;;;;;;;;;;;;;10.38;53.65;99804.69;6121366;23;6759;-76
2023/10/18 05:48:55;;;;;;;;;;;;;;;10.38;53.60;99800.44;6121320;23;6782;-75
2023/10/18 05:51:26;;;;;;;;;;;;;;;10.40;53.35;99795.41;6098579;23;8485;-76
2023/10/18 05:53:59;;;;;;;;;;;;;;;10.40;53.17;99793.69;6100568;23;7133;-75
2023/10/18 05:56:32;;;;;;;;;;;;;;;10.41;53.43;99787.78;6125127;23;7267;-76
2023/10/18 06:01:51;;;;;;;;;;;;;;;10.41;53.60;99790.34;6131611;23;6998;-74
2023/10/18 06:04:26;;;;;;;;;;;;;;;10.42;53.30;99786.97;6125450;23;6850;-76
2023/10/18 06:06:59;;;;;;;;;;;;;;;10.44;53.40;99778.50;6124482;23;6786;-74
2023/10/18 06:09:29;;;;;;;;;;;;;;;10.44;53.64;99778.50;6150157;23;6943;-75
2023/10/18 06:11:55;;;;;;;;;;;;;;;10.46;53.70;99771.72;6123580;23;6976;-76
2023/10/18 06:14:39;;;;;;;;;;;;;;;10.47;53.64;99768.34;6150846;23;6763;-76
2023/10/18 06:17:12;;;;;;;;;;;;;;;10.49;53.51;99767.59;6123956;23;8873;-76
2023/10/18 06:19:38;;;;;;;;;;;;;;;10.51;53.80;99770.19;6150160;23;6778;-77
2023/10/18 06:24:49;;;;;;;;;;;;;;;10.55;53.44;99761.84;6128487;23;6775;-76
2023/10/18 06:27:17;;;;;;;;;;;;;;;10.57;53.50;99765.31;6123087;23;6839;-76
2023/10/18 06:29:45;;;;;;;;;;;;;;;10.60;53.47;99760.31;6123746;23;6989;-74
2023/10/18 06:32:14;;;;;;;;;;;;;;;10.64;53.56;99758.72;6123194;23;6779;-77
2023/10/18 06:34:43;;;;;;;;;;;;;;;10.65;53.70;99758.81;6115532;23;7667;-76
2023/10/18 06:37:20;;;;;;;;;;;;;;;10.70;53.93;99756.41;6091302;23;7025;-74
2023/10/18 06:39:54;;;;;;;;;;;;;;;10.73;53.46;99756.50;6119596;23;6770;-77
2023/10/18 06:42:22;;;;;;;;;;;;;;;10.76;53.42;99751.47;6118175;23;6771;-76
2023/10/18 06:44:49;;;;;;;;;;;;;;;10.79;53.52;99751.63;6118136;23;7211;-75
2023/10/18 06:47:15;;;;;;;;;;;;;;;10.83;53.34;99748.34;6092181;23;7163;-75
2023/10/18 06:49:43;;;;;;;;;;;;;;;10.88;53.64;99745.09;6118500;23;6977;-76
2023/10/18 06:52:14;;;;;;;;;;;;;;;10.91;53.38;99740.94;6117832;23;7259;-76
2023/10/18 06:54:40;;;;;;;;;;;;;;;10.97;53.47;99753.13;6118329;23;6799;-74
2023/10/18 06:57:27;;;;;;;;;;;;;;;11.00;53.65;99735.25;6093130;23;6922;-76
2023/10/18 06:59:56;;;;;;;;;;;;;;;11.06;53.14;99734.59;6117246;23;6973;-76
2023/10/18 07:02:27;;;;;;;;;;;;;;;11.12;53.30;99729.69;6117654;23;6779;-76
2023/10/18 07:04:56;;;;;;;;;;;;;;;11.21;53.03;99735.16;6093784;23;6771;-76
2023/10/18 07:07:23;;;;;;;;;;;;;;;11.30;53.69;99733.69;6117019;23;6779;-76
2023/10/18 07:09:53;;;;;;;;;;;;;;;11.38;53.28;99732.28;6117809;23;6778;-74
2023/10/18 07:12:26;;;;;;;;;;;;;;;11.47;53.35;99719.75;6117389;23;7006;-74
2023/10/18 07:14:55;;;;;;;;;;;;;;;11.57;53.40;99714.94;6118229;23;6892;-75
2023/10/18 07:17:24;;;;;;;;;;;;;;;11.66;53.02;99715.22;6092999;23;7887;-74
2023/10/18 07:19:58;;;;;;;;;;;;;;;11.75;52.61;99718.09;6094154;23;6966;-76
2023/10/18 07:22:41;;;;;;;;;;;;;;;11.86;52.71;99720.13;6094560;23;7097;-76
2023/10/18 07:25:08;;;;;;;;;;;;;;;11.92;52.77;99707.50;6096457;23;7114;-76
2023/10/18 07:27:36;;;;;;;;;;;;;;;12.00;52.71;99712.84;6119038;23;6779;-77
2023/10/18 07:30:02;;;;;;;;;;;;;;;12.08;52.17;99706.31;6092881;23;7143;-74
2023/10/18 07:32:28;;;;;;;;;;;;;;;12.14;51.79;99706.50;6091798;23;7322;-76
2023/10/18 07:34:57;;;;;;;;;;;;;;;12.21;51.76;99700.69;6093618;23;6808;-76
2023/10/18 07:37:31;;;;;;;;;;;;;;;12.27;51.48;99689.75;6093864;23;6806;-74
2023/10/18 07:40:08;;;;;;;;;;;;;;;12.34;51.75;99680.53;6097666;23;6843;-76
2023/10/18 07:42:41;;;;;;;;;;;;;;;12.42;51.66;99691.91;6097198;23;6783;-76
2023/10/18 07:45:08;;;;;;;;;;;;;;;12.49;51.60;99682.66;6120956;23;6778;-76
2023/10/18 07:47:37;;;;;;;;;;;;;;;12.55;51.33;99680.25;6095431;23;6779;-75
2023/10/18 07:52:54;;;;;;;;;;;;;;;12.74;51.26;99673.06;6118522;23;7075;-72
2023/10/18 07:55:23;;;;;;;;;;;;;;;12.80;50.97;99670.66;6095278;23;6803;-73
2023/10/18 07:57:51;;;;;;;;;;;;;;;12.89;51.25;99668.34;6094259;23;6855;-72
2023/10/18 08:00:23;;;;;;;;;;;;;;;12.97;50.75;99662.53;6094307;23;6791;-72
2023/10/18 08:02:51;;;;;;;;;;;;;;;13.05;51.11;99663.63;6095926;23;6954;-72
2023/10/18 08:05:30;;;;;;;;;;;;;;;13.16;50.85;99664.75;6094743;23;7947;-73
2023/10/18 08:07:57;;;;;;;;;;;;;;;13.26;50.68;99658.13;6073772;23;7283;-71
2023/10/18 08:10:23;;;;;;;;;;;;;;;13.37;50.47;99650.69;6071089;23;6976;-71
2023/10/18 08:13:03;;;;;;;;;;;;;;;13.46;50.18;99652.63;6092236;23;6779;-71
2023/10/18 08:15:36;;;;;;;;;;;;;;;13.55;49.85;99646.84;6097704;23;6962;-71
2023/10/18 08:18:14;;;;;;;;;;;;;;;13.60;50.33;99646.13;6094644;23;9391;-73
2023/10/18 08:28:48;;;;;;;;;;;;;;;13.84;49.60;99644.94;6096103;23;7045;-73
2023/10/18 08:31:34;;;;;;;;;;;;;;;13.91;50.08;99643.38;6094577;23;6775;-72
2023/10/18 08:34:10;;;;;;;;;;;;;;;13.99;49.71;99644.41;6097266;23;6951;-74
2023/10/18 08:36:35;;;;;;;;;;;;;;;14.06;49.80;99622.25;6096075;23;6783;-71
2023/10/18 08:39:02;;;;;;;;;;;;;;;14.16;49.65;99634.47;6094825;23;6847;-74
2023/10/18 08:41:33;;;;;;;;;;;;;;;14.25;48.70;99632.94;6071050;23;7152;-71
2023/10/18 08:44:16;;;;;;;;;;;;;;;14.30;49.22;99631.31;6093993;23;7096;-72
2023/10/18 08:46:51;;;;;;;;;;;;;;;14.35;48.57;99636.56;6070613;23;6961;-71
2023/10/18 08:49:23;;;;;;;;;;;;;;;14.40;48.14;99629.81;6095356;23;7214;-72
2023/10/18 08:52:06;;;;;;;;;;;;;;;14.44;48.76;99626.44;6095752;23;6783;-72
2023/10/18 08:54:33;;;;;;;;;;;;;;;14.50;48.30;99617.94;6097846;23;6778;-72
2023/10/18 08:57:06;;;;;;;;;;;;;;;14.55;48.48;99619.78;6095566;23;6990;-71
2023/10/18 08:59:42;;;;;;;;;;;;;;;14.61;47.95;99625.91;6094723;23;6858;-72
2023/10/18 09:02:12;;;;;;;;;;;;;;;14.71;48.39;99612.34;6096466;23;6782;-71
2023/10/18 09:04:44;;;;;;;;;;;;;;;14.79;47.98;99605.66;6095224;23;6771;-73
2023/10/18 09:07:22;;;;;;;;;;;;;;;14.88;48.23;99610.09;6095048;23;6959;-73
2023/10/18 09:09:55;;;;;;;;;;;;;;;14.95;48.09;99605.91;6072383;23;7018;-73
2023/10/18 09:13:08;;;;;;;;;;;;;;;15.03;47.31;99606.91;6094732;23;6787;-72
2023/10/18 09:15:48;;;;;;;;;;;;;;;15.13;47.26;99601.03;6097596;23;6788;-73
2023/10/18 09:18:13;;;;;;;;;;;;;;;15.25;47.64;99592.66;6075401;23;7032;-72
2023/10/18 09:20:40;;;;;;;;;;;;;;;15.35;47.28;99574.72;6071147;23;7018;-72
2023/10/18 09:23:14;;;;;;;;;;;;;;;15.44;47.16;99574.84;6120119;23;6985;-71
2023/10/18 09:25:47;;;;;;;;;;;;;;;15.53;46.92;99574.09;6120372;23;7112;-72
2023/10/18 09:28:25;;;;;;;;;;;;;;;15.62;47.28;99568.22;6095453;23;6971;-73
2023/10/18 09:31:03;;;;;;;;;;;;;;;15.73;46.68;99563.19;6071907;23;6967;-72
2023/10/18 09:33:33;;;;;;;;;;;;;;;15.78;45.89;99552.06;6096281;23;6780;-71
2023/10/18 09:36:05;;;;;;;;;;;;;;;15.83;46.00;99557.28;6093838;23;6782;-72
2023/10/18 09:38:39;;;;;;;;;;;;;;;15.90;45.94;99558.25;6093296;23;6826;-71
2023/10/18 09:41:06;;;;;;;;;;;;;;;15.98;46.12;99556.66;6093003;23;6918;-72
2023/10/18 09:43:38;;;;;;;;;;;;;;;16.08;45.70;99555.06;6091047;23;6956;-71
2023/10/18 09:46:10;;;;;;;;;;;;;;;16.18;45.46;99558.63;6094565;23;6775;-73
2023/10/18 09:48:41;;;;;;;;;;;;;;;16.28;45.46;99551.84;6094400;23;6787;-72
2023/10/18 09:51:09;;;;;;;;;;;;;;;16.42;45.60;99550.28;6093933;23;7248;-71
2023/10/18 09:53:44;;;;;;;;;;;;;;;16.59;45.13;99554.72;6093800;23;6779;-73
2023/10/18 09:56:17;;;;;;;;;;;;;;;16.78;45.29;99535.09;6094209;23;6787;-72
2023/10/18 09:58:51;;;;;;;;;;;;;;;17.02;45.03;99537.03;6093498;23;6787;-73
2023/10/18 10:01:29;;;;;;;;;;;;;;;17.33;44.42;99529.50;6093416;23;6978;-73
2023/10/18 10:03:56;;;;;;;;;;;;;;;17.61;43.66;99529.66;6095275;23;6802;-72
2023/10/18 10:06:27;;;;;;;;;;;;;;;17.88;43.70;99530.66;6091408;23;6850;-73
2023/10/18 10:09:12;;;;;;;;;;;;;;;18.12;43.32;99505.69;6117839;23;6794;-72
2023/10/18 10:11:46;;;;;;;;;;;;;;;18.32;42.17;99508.34;6095956;23;6779;-72
2023/10/18 10:14:18;;;;;;;;;;;;;;;18.42;41.71;99504.00;6068988;23;7258;-72
2023/10/18 10:17:08;;;;;;;;;;;;;;;18.60;42.20;99491.94;6093192;23;6933;-71
2023/10/18 10:20:40;;;;;;;;;;;;;;;19.04;41.83;99476.38;6094255;23;6779;-72
2023/10/18 10:22:55;;;;;;;;;;;;;;;19.69;40.87;99479.66;6096130;23;6944;-71
2023/10/18 10:25:31;;;;;;;;;;;;;;;20.21;39.83;99463.81;6093309;23;7090;-71
2023/10/18 10:27:59;;;;;;;;;;;;;;;20.68;39.42;99457.38;6119156;23;6871;-72
2023/10/18 10:30:35;;;;;;;;;;;;;;;21.19;38.98;99452.56;6094520;23;6774;-71
2023/10/18 10:33:05;;;;;;;;;;;;;;;21.71;38.28;99443.28;6068256;23;6970;-69
2023/10/18 10:35:35;;;;;;;;;;;;;;;22.27;37.48;99442.50;6094550;23;6834;-70
2023/10/18 10:38:01;;;;;;;;;;;;;;;22.70;36.41;99434.91;6094341;23;6783;-70
2023/10/18 10:43:14;;;;;;;;;;;;;;;23.16;35.84;99427.94;6091128;23;6922;-70
2023/10/18 10:48:17;;;;;;;;;;;;;;;23.15;34.95;99442.75;6092839;23;6763;-71
2023/10/18 10:50:51;;;;;;;;;;;;;;;23.23;35.46;99433.91;6118274;23;7171;-70
2023/10/18 10:53:45;;;;;;;;;;;;;;;23.35;35.12;99425.00;6118170;23;6775;-72
2023/10/18 10:56:23;;;;;;;;;;;;;;;23.36;35.04;99414.50;6116075;23;7244;-72
2023/10/18 11:01:43;;;;;;;;;;;;;;;24.00;35.06;99406.13;6096289;23;6771;-71
2023/10/18 11:04:46;;;;;;;;;;;;;;;24.19;33.65;99395.25;6119058;23;6774;-70
2023/10/18 11:07:13;;;;;;;;;;;;;;;24.33;33.77;99391.44;6070528;23;6961;-70
2023/10/18 11:09:42;;;;;;;;;;;;;;;24.52;32.99;99395.28;6119036;23;6959;-71
2023/10/18 11:12:11;;;;;;;;;;;;;;;24.76;33.04;99381.59;6091109;23;6954;-70
2023/10/18 11:14:38;;;;;;;;;;;;;;;25.04;32.82;99379.13;6091041;23;7335;-70
2023/10/18 11:17:25;;;;;;;;;;;;;;;25.36;32.28;99364.22;6093189;23;7195;-71
2023/10/18 11:19:54;;;;;;;;;;;;;;;25.82;31.88;99363.75;6118118;23;6771;-71
2023/10/18 11:22:23;;;;;;;;;;;;;;;26.18;31.61;99349.47;6093136;23;6775;-71
2023/10/18 11:24:52;;;;;;;;;;;;;;;26.38;31.14;99350.59;6090423;23;7264;-70
2023/10/18 11:27:33;;;;;;;;;;;;;;;26.54;30.93;99348.28;6092678;23;7041;-71
2023/10/18 11:30:16;;;;;;;;;;;;;;;26.68;30.60;99346.03;6095184;23;7014;-71
2023/10/18 11:32:54;;;;;;;;;;;;;;;26.63;30.33;99337.44;6124556;23;11466;-72
2023/10/18 11:38:10;;;;;;;;;;;;;;;26.30;30.28;99328.06;6134510;23;6854;-73
2023/10/18 11:40:40;;;;;;;;;;;;;;;26.08;30.63;99317.41;6121862;23;7032;-71
2023/10/18 11:43:07;;;;;;;;;;;;;;;25.89;30.37;99304.91;6098307;23;7157;-70
2023/10/18 11:45:36;;;;;;;;;;;;;;;25.76;30.65;99295.69;6097686;23;7343;-71
2023/10/18 11:48:05;;;;;;;;;;;;;;;25.68;30.92;99290.72;6097915;23;7399;-71
2023/10/18 11:50:48;;;;;;;;;;;;;;;25.54;30.59;99283.28;6121987;23;7042;-70
2023/10/18 11:53:22;;;;;;;;;;;;;;;25.25;30.82;99277.16;6121354;23;6982;-71
2023/10/18 11:56:00;;;;;;;;;;;;;;;24.95;30.68;99274.56;6121855;23;6779;-71
2023/10/18 11:58:29;;;;;;;;;;;;;;;24.64;30.95;99285.88;6096513;23;6986;-73
2023/10/18 12:01:05;;;;;;;;;;;;;;;24.34;31.08;99273.59;6147754;23;6843;-70
2023/10/18 12:03:35;;;;;;;;;;;;;;;24.01;31.64;99270.94;6124644;23;6778;-71
2023/10/18 12:06:02;;;;;;;;;;;;;;;23.66;32.23;99265.69;6145955;23;6771;-72
2023/10/18 12:08:30;;;;;;;;;;;;;;;23.34;32.32;99254.22;6122691;23;6798;-71
2023/10/18 12:11:09;;;;;;;;;;;;;;;22.95;32.93;99247.22;6122989;23;6782;-72
2023/10/18 12:13:35;;;;;;;;;;;;;;;22.58;33.01;99251.41;6124809;23;7184;-73
2023/10/18 12:16:00;;;;;;;;;;;;;;;22.29;33.35;99254.56;6122391;23;6762;-71
2023/10/18 12:18:29;;;;;;;;;;;;;;;22.07;34.07;99247.16;6148505;23;6763;-72
2023/10/18 12:20:56;;;;;;;;;;;;;;;21.87;34.11;99250.94;6121822;23;6988;-73
2023/10/18 12:23:22;;;;;;;;;;;;;;;21.67;34.76;99246.06;6122529;23;7005;-70
2023/10/18 12:25:49;;;;;;;;;;;;;;;21.48;35.13;99248.94;6124203;23;6755;-70
2023/10/18 12:28:18;;;;;;;;;;;;;;;21.30;35.29;99247.47;6123837;23;6943;-71
2023/10/18 12:30:52;;;;;;;;;;;;;;;21.16;35.36;99239.84;6148983;23;7085;-72
2023/10/18 12:33:27;;;;;;;;;;;;;;;21.02;35.81;99233.97;6150402;23;7015;-71
2023/10/18 12:35:56;;;;;;;;;;;;;;;20.92;36.24;99225.44;6126116;23;7104;-76
2023/10/18 12:38:32;;;;;;;;;;;;;;;20.87;36.18;99220.28;6121213;23;7218;-76
2023/10/18 12:43:44;;;;;;;;;;;;;;;20.78;36.49;99191.72;6135976;23;6767;-74
2023/10/18 12:46:21;;;;;;;;;;;;;;;20.78;36.59;99183.91;6098327;23;6938;-76
2023/10/18 12:48:49;;;;;;;;;;;;;;;20.82;36.72;99167.38;6125937;23;7014;-75
2023/10/18 12:51:17;;;;;;;;;;;;;;;20.83;36.85;99166.50;6125423;23;7216;-76
2023/10/18 12:53:56;;;;;;;;;;;;;;;20.83;36.78;99145.69;6097769;23;7273;-78
2023/10/18 12:58:58;;;;;;;;;;;;;;;20.80;37.08;99132.69;6133974;23;7109;-77
2023/10/18 13:04:08;;;;;;;;;;;;;;;20.68;36.99;99131.97;6136693;23;6767;-75
2023/10/18 13:06:35;;;;;;;;;;;;;;;20.64;37.08;99125.06;6125112;23;6774;-74
2023/10/18 13:14:31;;;;;;;;;;;;;;;20.51;37.43;99107.91;6123329;23;6826;-73
2023/10/18 13:17:00;;;;;;;;;;;;;;;20.43;37.42;99096.75;6126409;23;6850;-74
2023/10/18 13:19:30;;;;;;;;;;;;;;;20.39;37.43;99098.53;6121037;23;7041;-74
2023/10/18 13:21:56;;;;;;;;;;;;;;;20.35;37.45;99076.88;6123894;23;6969;-75
2023/10/18 13:26:52;;;;;;;;;;;;;;;20.24;37.72;99074.44;6123337;23;7198;-74
2023/10/18 13:31:49;;;;;;;;;;;;;;;20.13;37.93;99060.69;6122389;23;6938;-74
2023/10/18 13:34:18;;;;;;;;;;;;;;;20.05;37.82;99058.19;6122702;23;6978;-75
2023/10/18 13:36:49;;;;;;;;;;;;;;;19.97;38.19;99041.81;6123383;23;6779;-74
2023/10/18 13:39:16;;;;;;;;;;;;;;;19.91;38.15;99044.47;6120546;23;7109;-74
2023/10/18 13:41:47;;;;;;;;;;;;;;;19.86;38.40;99047.13;6122664;23;7627;-73
2023/10/18 13:44:19;;;;;;;;;;;;;;;19.79;38.56;99035.91;6121320;23;7288;-72
2023/10/18 13:46:55;;;;;;;;;;;;;;;19.73;38.66;99020.41;6096958;23;7072;-71
2023/10/18 13:49:25;;;;;;;;;;;;;;;19.66;38.74;99018.75;6121086;23;6968;-70
2023/10/18 13:51:56;;;;;;;;;;;;;;;19.62;38.42;99027.47;6146556;23;7027;-71
2023/10/18 13:54:22;;;;;;;;;;;;;;;19.59;39.12;99032.69;6122539;23;6942;-70
2023/10/18 13:56:49;;;;;;;;;;;;;;;19.55;38.81;99018.88;6121784;23;6838;-71
2023/10/18 13:59:16;;;;;;;;;;;;;;;19.51;39.12;99012.88;6121816;23;6779;-70
2023/10/18 14:01:42;;;;;;;;;;;;;;;19.48;38.70;99002.50;6128589;23;6966;-71
2023/10/18 14:04:08;;;;;;;;;;;;;;;19.47;38.92;99008.56;6116386;23;6854;-71
2023/10/18 14:06:37;;;;;;;;;;;;;;;19.47;39.00;98999.94;6117785;23;7056;-71
2023/10/18 14:09:10;;;;;;;;;;;;;;;19.45;38.83;98996.47;6117506;23;6783;-70
2023/10/18 14:11:39;;;;;;;;;;;;;;;19.48;39.49;98997.28;6117937;23;6835;-71
2023/10/18 14:14:08;;;;;;;;;;;;;;;19.51;39.12;98983.41;6118249;23;7212;-71
2023/10/18 14:16:37;;;;;;;;;;;;;;;19.51;39.18;98978.22;6092808;23;7216;-71
2023/10/18 14:19:05;;;;;;;;;;;;;;;19.53;39.62;98992.06;6093781;23;6970;-71
2023/10/18 14:21:31;;;;;;;;;;;;;;;19.56;38.95;98981.66;6118429;23;6982;-71
2023/10/18 14:24:00;;;;;;;;;;;;;;;19.60;39.40;98987.63;6093466;23;6971;-71
2023/10/18 14:26:27;;;;;;;;;;;;;;;19.63;38.98;98983.25;6117579;23;7087;-72
2023/10/18 14:28:55;;;;;;;;;;;;;;;19.65;39.12;98991.06;6118017;23;7189;-71
2023/10/18 14:31:21;;;;;;;;;;;;;;;19.65;38.60;98985.84;6119234;23;6774;-71
2023/10/18 14:33:49;;;;;;;;;;;;;;;19.66;39.19;98974.59;6143593;23;7138;-71
2023/10/18 14:36:18;;;;;;;;;;;;;;;19.65;39.21;98972.88;6139239;23;6965;-72
2023/10/18 14:38:44;;;;;;;;;;;;;;;19.63;38.67;98964.22;6118019;23;7018;-72
2023/10/18 14:41:18;;;;;;;;;;;;;;;19.62;39.34;98968.56;6142532;23;8211;-71
2023/10/18 14:43:46;;;;;;;;;;;;;;;19.60;39.42;98962.53;6110811;23;7158;-71